sensor_id;sensor_type;location;lat;lon;timestamp;temperature;humidity
19868;DHT22;10096;51.112;6.776;2023-06-26T00:01:37;23.40;99.90
19868;DHT22;10096;51.112;6.776;2023-06-26T00:04:08;23.30;99.90
19868;DHT22;10096;51.112;6.776;2023-06-26T00:06:40;23.40;99.90
19868;DHT22;10096;51.112;6.776;2023-06-26T00:09:08;23.20;99.90
19868;DHT22;10096;51.112;6.776;2023-06-26T00:11:36;23.20;99.90
19868;DHT22;10096;51.112;6.776;2023-06-26T00:14:03;23.20;99.90
19868;DHT22;10096;51.112;6.776;2023-06-26T00:16:31;23.30;99.90
19868;DHT22;10096;51.112;6.776;2023-06-26T00:18:58;23.10;99.90
19868;DHT22;10096;51.112;6.776;2023-06-26T00:21:25;23.10;99.90
19868;DHT22;10096;51.112;6.776;2023-06-26T00:23:52;23.20;99.90
19868;DHT22;10096;51.112;6.776;2023-06-26T00:26:21;23.10;99.90
19868;DHT22;10096;51.112;6.776;2023-06-26T00:28:49;22.90;99.90
19868;DHT22;10096;51.112;6.776;2023-06-26T00:31:17;22.90;99.90
19868;DHT22;10096;51.112;6.776;2023-06-26T00:33:44;22.90;99.90
19868;DHT22;10096;51.112;6.776;2023-06-26T00:36:11;22.70;99.90
19868;DHT22;10096;51.112;6.776;2023-06-26T00:38:38;22.70;99.90
19868;DHT22;10096;51.112;6.776;2023-06-26T00:41:06;22.90;99.90
19868;DHT22;10096;51.112;6.776;2023-06-26T00:43:39;22.90;99.90
19868;DHT22;10096;51.112;6.776;2023-06-26T00:46:09;22.80;99.90
19868;DHT22;10096;51.112;6.776;2023-06-26T00:48:37;22.80;99.90
19868;DHT22;10096;51.112;6.776;2023-06-26T00:51:06;22.90;99.90
19868;DHT22;10096;51.112;6.776;2023-06-26T00:53:33;22.90;99.90
19868;DHT22;10096;51.112;6.776;2023-06-26T00:56:01;22.90;99.90
19868;DHT22;10096;51.112;6.776;2023-06-26T00:58:28;22.80;99.90
19868;DHT22;10096;51.112;6.776;2023-06-26T01:00:57;22.80;99.90
19868;DHT22;10096;51.112;6.776;2023-06-26T01:03:26;22.70;99.90
19868;DHT22;10096;51.112;6.776;2023-06-26T01:05:54;22.90;99.90
19868;DHT22;10096;51.112;6.776;2023-06-26T01:08:23;22.70;99.90
19868;DHT22;10096;51.112;6.776;2023-06-26T01:10:51;22.80;99.90
19868;DHT22;10096;51.112;6.776;2023-06-26T01:13:19;22.90;99.90
19868;DHT22;10096;51.112;6.776;2023-06-26T01:15:47;22.70;99.90
19868;DHT22;10096;51.112;6.776;2023-06-26T01:18:16;22.50;99.90
19868;DHT22;10096;51.112;6.776;2023-06-26T01:20:44;22.50;99.90
19868;DHT22;10096;51.112;6.776;2023-06-26T01:23:15;22.30;99.90
19868;DHT22;10096;51.112;6.776;2023-06-26T01:25:56;22.40;99.90
19868;DHT22;10096;51.112;6.776;2023-06-26T01:28:28;22.40;99.90
19868;DHT22;10096;51.112;6.776;2023-06-26T01:30:56;22.20;99.90
19868;DHT22;10096;51.112;6.776;2023-06-26T01:33:23;22.20;99.90
19868;DHT22;10096;51.112;6.776;2023-06-26T01:35:51;22.10;99.90
19868;DHT22;10096;51.112;6.776;2023-06-26T01:38:20;22.20;99.90
19868;DHT22;10096;51.112;6.776;2023-06-26T01:40:48;22.20;99.90
19868;DHT22;10096;51.112;6.776;2023-06-26T01:43:21;22.20;99.90
19868;DHT22;10096;51.112;6.776;2023-06-26T01:45:55;22.20;99.90
19868;DHT22;10096;51.112;6.776;2023-06-26T01:48:30;22.50;99.90
19868;DHT22;10096;51.112;6.776;2023-06-26T01:50:59;22.30;99.90
19868;DHT22;10096;51.112;6.776;2023-06-26T01:53:32;22.30;99.90
19868;DHT22;10096;51.112;6.776;2023-06-26T01:56:06;22.30;99.90
19868;DHT22;10096;51.112;6.776;2023-06-26T01:58:35;22.10;99.90
19868;DHT22;10096;51.112;6.776;2023-06-26T02:01:06;22.30;99.90
19868;DHT22;10096;51.112;6.776;2023-06-26T02:03:33;22.10;99.90
19868;DHT22;10096;51.112;6.776;2023-06-26T02:06:01;22.10;99.90
19868;DHT22;10096;51.112;6.776;2023-06-26T02:08:28;22.20;99.90
19868;DHT22;10096;51.112;6.776;2023-06-26T02:10:55;22.30;99.90
19868;DHT22;10096;51.112;6.776;2023-06-26T02:13:22;22.60;99.90
19868;DHT22;10096;51.112;6.776;2023-06-26T02:15:49;22.30;99.90
19868;DHT22;10096;51.112;6.776;2023-06-26T02:18:17;22.50;99.90
19868;DHT22;10096;51.112;6.776;2023-06-26T02:20:47;22.60;99.90
19868;DHT22;10096;51.112;6.776;2023-06-26T02:23:14;22.50;99.90
19868;DHT22;10096;51.112;6.776;2023-06-26T02:25:41;22.40;99.90
19868;DHT22;10096;51.112;6.776;2023-06-26T02:28:08;22.50;99.90
19868;DHT22;10096;51.112;6.776;2023-06-26T02:30:35;22.30;99.90
19868;DHT22;10096;51.112;6.776;2023-06-26T02:33:02;22.10;99.90
19868;DHT22;10096;51.112;6.776;2023-06-26T02:35:31;22.00;99.90
19868;DHT22;10096;51.112;6.776;2023-06-26T02:37:59;22.00;99.90
19868;DHT22;10096;51.112;6.776;2023-06-26T02:40:26;21.90;99.90
19868;DHT22;10096;51.112;6.776;2023-06-26T02:42:54;22.10;99.90
19868;DHT22;10096;51.112;6.776;2023-06-26T02:45:21;22.10;99.90
19868;DHT22;10096;51.112;6.776;2023-06-26T02:47:48;22.10;99.90
19868;DHT22;10096;51.112;6.776;2023-06-26T02:50:15;22.10;99.90
19868;DHT22;10096;51.112;6.776;2023-06-26T02:52:44;21.90;99.90
19868;DHT22;10096;51.112;6.776;2023-06-26T02:55:13;21.80;99.90
19868;DHT22;10096;51.112;6.776;2023-06-26T02:57:41;21.70;99.90
19868;DHT22;10096;51.112;6.776;2023-06-26T03:00:09;21.70;99.90
19868;DHT22;10096;51.112;6.776;2023-06-26T03:02:37;21.60;99.90
19868;DHT22;10096;51.112;6.776;2023-06-26T03:05:04;21.50;99.90
19868;DHT22;10096;51.112;6.776;2023-06-26T03:07:34;21.40;99.90
19868;DHT22;10096;51.112;6.776;2023-06-26T03:10:02;21.30;99.90
19868;DHT22;10096;51.112;6.776;2023-06-26T03:12:31;21.50;99.90
19868;DHT22;10096;51.112;6.776;2023-06-26T03:14:58;21.90;99.90
19868;DHT22;10096;51.112;6.776;2023-06-26T03:17:25;21.60;99.90
19868;DHT22;10096;51.112;6.776;2023-06-26T03:19:52;21.70;99.90
19868;DHT22;10096;51.112;6.776;2023-06-26T03:22:19;21.70;99.90
19868;DHT22;10096;51.112;6.776;2023-06-26T03:24:46;21.70;99.90
19868;DHT22;10096;51.112;6.776;2023-06-26T03:27:15;21.70;99.90
19868;DHT22;10096;51.112;6.776;2023-06-26T03:29:42;21.90;99.90
19868;DHT22;10096;51.112;6.776;2023-06-26T03:32:09;21.80;99.90
19868;DHT22;10096;51.112;6.776;2023-06-26T03:34:37;21.90;99.90
19868;DHT22;10096;51.112;6.776;2023-06-26T03:37:04;21.90;99.90
19868;DHT22;10096;51.112;6.776;2023-06-26T03:39:32;21.90;99.90
19868;DHT22;10096;51.112;6.776;2023-06-26T03:41:59;21.90;99.90
19868;DHT22;10096;51.112;6.776;2023-06-26T03:44:28;22.20;99.90
19868;DHT22;10096;51.112;6.776;2023-06-26T03:46:55;22.40;99.90
19868;DHT22;10096;51.112;6.776;2023-06-26T03:49:22;22.90;99.90
19868;DHT22;10096;51.112;6.776;2023-06-26T03:51:49;23.40;99.90
19868;DHT22;10096;51.112;6.776;2023-06-26T03:54:16;23.80;99.90
19868;DHT22;10096;51.112;6.776;2023-06-26T03:56:43;24.20;99.90
19868;DHT22;10096;51.112;6.776;2023-06-26T03:59:11;24.70;99.90
19868;DHT22;10096;51.112;6.776;2023-06-26T04:01:39;25.10;99.90
19868;DHT22;10096;51.112;6.776;2023-06-26T04:04:06;25.50;99.90
19868;DHT22;10096;51.112;6.776;2023-06-26T04:06:34;25.70;99.90
19868;DHT22;10096;51.112;6.776;2023-06-26T04:09:01;26.10;99.90
19868;DHT22;10096;51.112;6.776;2023-06-26T04:11:31;26.10;99.90
19868;DHT22;10096;51.112;6.776;2023-06-26T04:13:58;26.20;99.90
19868;DHT22;10096;51.112;6.776;2023-06-26T04:16:25;26.30;99.90
19868;DHT22;10096;51.112;6.776;2023-06-26T04:18:54;26.00;99.90
19868;DHT22;10096;51.112;6.776;2023-06-26T04:21:23;25.90;99.90
19868;DHT22;10096;51.112;6.776;2023-06-26T04:23:51;25.90;99.90
19868;DHT22;10096;51.112;6.776;2023-06-26T04:26:19;25.50;99.90
19868;DHT22;10096;51.112;6.776;2023-06-26T04:28:49;25.60;99.90
19868;DHT22;10096;51.112;6.776;2023-06-26T04:31:16;25.90;99.90
19868;DHT22;10096;51.112;6.776;2023-06-26T04:33:43;25.70;99.90
19868;DHT22;10096;51.112;6.776;2023-06-26T04:36:12;25.70;99.90
19868;DHT22;10096;51.112;6.776;2023-06-26T04:38:39;26.00;99.90
19868;DHT22;10096;51.112;6.776;2023-06-26T04:41:06;26.60;99.90
19868;DHT22;10096;51.112;6.776;2023-06-26T04:43:33;27.20;99.90
19868;DHT22;10096;51.112;6.776;2023-06-26T04:46:01;27.30;99.90
19868;DHT22;10096;51.112;6.776;2023-06-26T04:48:31;27.90;99.90
19868;DHT22;10096;51.112;6.776;2023-06-26T04:50:59;28.30;99.90
19868;DHT22;10096;51.112;6.776;2023-06-26T04:53:29;28.70;99.90
19868;DHT22;10096;51.112;6.776;2023-06-26T04:55:57;28.40;99.90
19868;DHT22;10096;51.112;6.776;2023-06-26T04:58:24;28.50;99.90
19868;DHT22;10096;51.112;6.776;2023-06-26T05:00:51;28.30;99.90
19868;DHT22;10096;51.112;6.776;2023-06-26T05:03:21;28.30;99.90
19868;DHT22;10096;51.112;6.776;2023-06-26T05:05:48;28.50;99.90
19868;DHT22;10096;51.112;6.776;2023-06-26T05:08:17;28.10;99.90
19868;DHT22;10096;51.112;6.776;2023-06-26T05:10:46;27.70;99.90
19868;DHT22;10096;51.112;6.776;2023-06-26T05:13:14;27.20;99.90
19868;DHT22;10096;51.112;6.776;2023-06-26T05:15:43;26.80;99.90
19868;DHT22;10096;51.112;6.776;2023-06-26T05:18:10;26.50;99.90
19868;DHT22;10096;51.112;6.776;2023-06-26T05:20:38;26.30;99.90
19868;DHT22;10096;51.112;6.776;2023-06-26T05:23:06;26.30;99.90
19868;DHT22;10096;51.112;6.776;2023-06-26T05:25:34;26.20;99.90
19868;DHT22;10096;51.112;6.776;2023-06-26T05:28:05;26.00;99.90
19868;DHT22;10096;51.112;6.776;2023-06-26T05:30:36;25.80;99.90
19868;DHT22;10096;51.112;6.776;2023-06-26T05:33:04;25.60;99.90
19868;DHT22;10096;51.112;6.776;2023-06-26T05:35:34;25.50;99.90
19868;DHT22;10096;51.112;6.776;2023-06-26T05:38:04;26.30;99.90
19868;DHT22;10096;51.112;6.776;2023-06-26T05:40:32;26.40;99.90
19868;DHT22;10096;51.112;6.776;2023-06-26T05:43:01;26.70;99.90
19868;DHT22;10096;51.112;6.776;2023-06-26T05:45:30;28.40;99.90
19868;DHT22;10096;51.112;6.776;2023-06-26T05:47:57;29.70;99.90
19868;DHT22;10096;51.112;6.776;2023-06-26T05:50:25;29.60;99.90
19868;DHT22;10096;51.112;6.776;2023-06-26T05:52:54;29.80;99.90
19868;DHT22;10096;51.112;6.776;2023-06-26T05:55:22;29.70;99.90
19868;DHT22;10096;51.112;6.776;2023-06-26T05:57:50;30.40;99.90
19868;DHT22;10096;51.112;6.776;2023-06-26T06:00:19;30.90;99.90
19868;DHT22;10096;51.112;6.776;2023-06-26T06:02:48;31.50;99.90
19868;DHT22;10096;51.112;6.776;2023-06-26T06:05:23;31.10;99.90
19868;DHT22;10096;51.112;6.776;2023-06-26T06:07:50;29.80;99.90
19868;DHT22;10096;51.112;6.776;2023-06-26T06:10:19;28.90;99.90
19868;DHT22;10096;51.112;6.776;2023-06-26T06:12:46;27.90;99.90
19868;DHT22;10096;51.112;6.776;2023-06-26T06:15:14;27.40;99.90
19868;DHT22;10096;51.112;6.776;2023-06-26T06:17:41;27.20;99.90
19868;DHT22;10096;51.112;6.776;2023-06-26T06:20:11;27.90;99.90
19868;DHT22;10096;51.112;6.776;2023-06-26T06:22:38;27.60;99.90
19868;DHT22;10096;51.112;6.776;2023-06-26T06:25:08;27.20;99.90
19868;DHT22;10096;51.112;6.776;2023-06-26T06:27:35;27.10;99.90
19868;DHT22;10096;51.112;6.776;2023-06-26T06:30:03;26.90;99.90
19868;DHT22;10096;51.112;6.776;2023-06-26T06:32:31;26.30;99.90
19868;DHT22;10096;51.112;6.776;2023-06-26T06:34:58;25.90;99.90
19868;DHT22;10096;51.112;6.776;2023-06-26T06:37:30;25.50;99.90
19868;DHT22;10096;51.112;6.776;2023-06-26T06:39:58;25.90;99.90
19868;DHT22;10096;51.112;6.776;2023-06-26T06:42:25;27.40;99.90
19868;DHT22;10096;51.112;6.776;2023-06-26T06:44:52;29.00;99.90
19868;DHT22;10096;51.112;6.776;2023-06-26T06:47:19;30.40;99.90
19868;DHT22;10096;51.112;6.776;2023-06-26T06:49:46;31.20;99.90
19868;DHT22;10096;51.112;6.776;2023-06-26T06:52:14;31.60;99.90
19868;DHT22;10096;51.112;6.776;2023-06-26T06:54:57;31.20;99.90
19868;DHT22;10096;51.112;6.776;2023-06-26T06:57:25;32.00;99.90
19868;DHT22;10096;51.112;6.776;2023-06-26T06:59:52;32.20;99.90
19868;DHT22;10096;51.112;6.776;2023-06-26T07:02:19;31.40;99.90
19868;DHT22;10096;51.112;6.776;2023-06-26T07:04:47;30.50;99.90
19868;DHT22;10096;51.112;6.776;2023-06-26T07:07:19;29.80;99.90
19868;DHT22;10096;51.112;6.776;2023-06-26T07:09:46;29.30;99.90
19868;DHT22;10096;51.112;6.776;2023-06-26T07:12:15;28.80;99.90
19868;DHT22;10096;51.112;6.776;2023-06-26T07:14:42;28.20;99.90
19868;DHT22;10096;51.112;6.776;2023-06-26T07:17:10;27.80;99.90
19868;DHT22;10096;51.112;6.776;2023-06-26T07:19:37;27.60;99.90
19868;DHT22;10096;51.112;6.776;2023-06-26T07:22:04;28.90;99.90
19868;DHT22;10096;51.112;6.776;2023-06-26T07:24:32;30.00;99.90
19868;DHT22;10096;51.112;6.776;2023-06-26T07:26:59;30.40;99.90
19868;DHT22;10096;51.112;6.776;2023-06-26T07:29:28;31.30;99.90
19868;DHT22;10096;51.112;6.776;2023-06-26T07:31:56;31.90;99.90
19868;DHT22;10096;51.112;6.776;2023-06-26T07:34:23;31.70;99.90
19868;DHT22;10096;51.112;6.776;2023-06-26T07:36:50;31.40;99.90
19868;DHT22;10096;51.112;6.776;2023-06-26T07:39:18;31.10;99.90
19868;DHT22;10096;51.112;6.776;2023-06-26T07:41:45;30.50;99.90
19868;DHT22;10096;51.112;6.776;2023-06-26T07:44:14;30.60;99.90
19868;DHT22;10096;51.112;6.776;2023-06-26T07:46:44;30.90;99.90
19868;DHT22;10096;51.112;6.776;2023-06-26T07:49:11;31.80;99.90
19868;DHT22;10096;51.112;6.776;2023-06-26T07:51:38;32.40;99.90
19868;DHT22;10096;51.112;6.776;2023-06-26T07:54:06;32.20;99.90
19868;DHT22;10096;51.112;6.776;2023-06-26T07:56:43;32.40;99.90
19868;DHT22;10096;51.112;6.776;2023-06-26T07:59:19;33.10;99.90
19868;DHT22;10096;51.112;6.776;2023-06-26T08:01:48;33.40;99.90
19868;DHT22;10096;51.112;6.776;2023-06-26T08:04:16;33.90;99.90
19868;DHT22;10096;51.112;6.776;2023-06-26T08:06:43;33.90;99.90
19868;DHT22;10096;51.112;6.776;2023-06-26T08:09:10;33.50;99.90
19868;DHT22;10096;51.112;6.776;2023-06-26T08:11:38;33.70;99.90
19868;DHT22;10096;51.112;6.776;2023-06-26T08:14:08;32.90;99.90
19868;DHT22;10096;51.112;6.776;2023-06-26T08:16:37;32.30;99.90
19868;DHT22;10096;51.112;6.776;2023-06-26T08:19:07;31.80;99.90
19868;DHT22;10096;51.112;6.776;2023-06-26T08:21:35;30.80;99.90
19868;DHT22;10096;51.112;6.776;2023-06-26T08:24:05;30.20;99.90
19868;DHT22;10096;51.112;6.776;2023-06-26T08:26:33;29.60;99.90
19868;DHT22;10096;51.112;6.776;2023-06-26T08:29:00;29.40;99.90
19868;DHT22;10096;51.112;6.776;2023-06-26T08:31:33;29.40;99.90
19868;DHT22;10096;51.112;6.776;2023-06-26T08:34:00;29.40;99.90
19868;DHT22;10096;51.112;6.776;2023-06-26T08:36:29;29.40;99.90
19868;DHT22;10096;51.112;6.776;2023-06-26T08:38:56;29.00;99.90
19868;DHT22;10096;51.112;6.776;2023-06-26T08:41:24;28.70;99.90
19868;DHT22;10096;51.112;6.776;2023-06-26T08:43:51;28.50;99.90
19868;DHT22;10096;51.112;6.776;2023-06-26T08:46:19;28.20;99.90
19868;DHT22;10096;51.112;6.776;2023-06-26T08:48:49;28.70;99.90
19868;DHT22;10096;51.112;6.776;2023-06-26T08:51:17;29.60;99.90
19868;DHT22;10096;51.112;6.776;2023-06-26T08:53:52;29.40;99.90
19868;DHT22;10096;51.112;6.776;2023-06-26T08:56:24;29.40;99.90
19868;DHT22;10096;51.112;6.776;2023-06-26T08:58:52;29.20;99.90
19868;DHT22;10096;51.112;6.776;2023-06-26T09:01:20;29.60;99.90
19868;DHT22;10096;51.112;6.776;2023-06-26T09:03:52;29.40;99.90
19868;DHT22;10096;51.112;6.776;2023-06-26T09:06:20;29.50;99.90
19868;DHT22;10096;51.112;6.776;2023-06-26T09:08:49;30.00;99.90
19868;DHT22;10096;51.112;6.776;2023-06-26T09:11:16;30.60;99.90
19868;DHT22;10096;51.112;6.776;2023-06-26T09:13:43;30.70;99.90
19868;DHT22;10096;51.112;6.776;2023-06-26T09:16:13;31.00;99.90
19868;DHT22;10096;51.112;6.776;2023-06-26T09:18:41;31.40;99.90
19868;DHT22;10096;51.112;6.776;2023-06-26T09:21:11;30.90;99.90
19868;DHT22;10096;51.112;6.776;2023-06-26T09:23:40;30.40;99.90
19868;DHT22;10096;51.112;6.776;2023-06-26T09:26:13;30.40;99.90
19868;DHT22;10096;51.112;6.776;2023-06-26T09:28:42;30.00;99.90
19868;DHT22;10096;51.112;6.776;2023-06-26T09:31:09;30.40;99.90
19868;DHT22;10096;51.112;6.776;2023-06-26T09:33:38;29.70;99.90
19868;DHT22;10096;51.112;6.776;2023-06-26T09:36:17;29.50;99.90
19868;DHT22;10096;51.112;6.776;2023-06-26T09:38:45;29.80;99.90
19868;DHT22;10096;51.112;6.776;2023-06-26T09:41:15;29.80;99.90
19868;DHT22;10096;51.112;6.776;2023-06-26T09:43:46;29.80;99.90
19868;DHT22;10096;51.112;6.776;2023-06-26T09:46:16;29.20;99.90
19868;DHT22;10096;51.112;6.776;2023-06-26T09:49:05;29.30;99.90
19868;DHT22;10096;51.112;6.776;2023-06-26T09:51:43;29.50;99.90
19868;DHT22;10096;51.112;6.776;2023-06-26T09:54:10;29.50;99.90
19868;DHT22;10096;51.112;6.776;2023-06-26T09:56:39;29.30;99.90
19868;DHT22;10096;51.112;6.776;2023-06-26T09:59:06;29.30;99.90
19868;DHT22;10096;51.112;6.776;2023-06-26T10:01:39;29.40;99.90
19868;DHT22;10096;51.112;6.776;2023-06-26T10:04:20;29.90;99.90
19868;DHT22;10096;51.112;6.776;2023-06-26T10:06:49;30.10;99.90
19868;DHT22;10096;51.112;6.776;2023-06-26T10:09:22;30.40;99.90
19868;DHT22;10096;51.112;6.776;2023-06-26T10:12:03;30.00;99.90
19868;DHT22;10096;51.112;6.776;2023-06-26T10:14:34;30.20;99.90
19868;DHT22;10096;51.112;6.776;2023-06-26T10:17:06;30.80;99.90
19868;DHT22;10096;51.112;6.776;2023-06-26T10:19:36;30.60;99.90
19868;DHT22;10096;51.112;6.776;2023-06-26T10:22:05;30.30;99.90
19868;DHT22;10096;51.112;6.776;2023-06-26T10:24:35;30.30;99.90
19868;DHT22;10096;51.112;6.776;2023-06-26T10:27:08;30.80;99.90
19868;DHT22;10096;51.112;6.776;2023-06-26T10:29:37;31.00;99.90
19868;DHT22;10096;51.112;6.776;2023-06-26T10:32:10;31.10;99.90
19868;DHT22;10096;51.112;6.776;2023-06-26T10:34:38;31.50;99.90
19868;DHT22;10096;51.112;6.776;2023-06-26T10:37:08;31.40;99.90
19868;DHT22;10096;51.112;6.776;2023-06-26T10:39:48;31.60;99.90
19868;DHT22;10096;51.112;6.776;2023-06-26T10:42:20;31.50;99.90
19868;DHT22;10096;51.112;6.776;2023-06-26T10:44:55;31.40;99.90
19868;DHT22;10096;51.112;6.776;2023-06-26T10:47:32;31.10;99.90
19868;DHT22;10096;51.112;6.776;2023-06-26T10:50:23;30.70;99.90
19868;DHT22;10096;51.112;6.776;2023-06-26T10:53:24;30.80;99.90
19868;DHT22;10096;51.112;6.776;2023-06-26T10:55:56;30.00;99.90
19868;DHT22;10096;51.112;6.776;2023-06-26T10:58:32;30.00;99.90
19868;DHT22;10096;51.112;6.776;2023-06-26T11:01:21;30.00;99.90
19868;DHT22;10096;51.112;6.776;2023-06-26T11:03:59;30.00;99.90
19868;DHT22;10096;51.112;6.776;2023-06-26T11:06:28;30.00;99.90
19868;DHT22;10096;51.112;6.776;2023-06-26T11:09:00;30.30;99.90
19868;DHT22;10096;51.112;6.776;2023-06-26T11:11:55;30.50;99.90
19868;DHT22;10096;51.112;6.776;2023-06-26T11:14:26;30.90;99.90
19868;DHT22;10096;51.112;6.776;2023-06-26T11:16:55;31.30;99.90
19868;DHT22;10096;51.112;6.776;2023-06-26T11:19:25;31.10;99.90
19868;DHT22;10096;51.112;6.776;2023-06-26T11:21:56;31.00;99.90
19868;DHT22;10096;51.112;6.776;2023-06-26T11:24:25;30.70;99.90
19868;DHT22;10096;51.112;6.776;2023-06-26T11:26:53;30.60;99.90
19868;DHT22;10096;51.112;6.776;2023-06-26T11:29:20;30.60;99.90
19868;DHT22;10096;51.112;6.776;2023-06-26T11:31:58;30.20;99.90
19868;DHT22;10096;51.112;6.776;2023-06-26T11:34:29;30.10;99.90
19868;DHT22;10096;51.112;6.776;2023-06-26T11:36:57;30.20;99.90
19868;DHT22;10096;51.112;6.776;2023-06-26T11:39:33;30.10;99.90
19868;DHT22;10096;51.112;6.776;2023-06-26T11:42:00;30.00;99.90
19868;DHT22;10096;51.112;6.776;2023-06-26T11:44:31;29.70;99.90
19868;DHT22;10096;51.112;6.776;2023-06-26T11:47:01;29.40;99.90
19868;DHT22;10096;51.112;6.776;2023-06-26T11:49:29;29.20;99.90
19868;DHT22;10096;51.112;6.776;2023-06-26T11:51:56;29.00;99.90
19868;DHT22;10096;51.112;6.776;2023-06-26T11:54:25;29.00;99.90
19868;DHT22;10096;51.112;6.776;2023-06-26T11:56:56;29.40;99.90
19868;DHT22;10096;51.112;6.776;2023-06-26T11:59:24;29.70;99.90
19868;DHT22;10096;51.112;6.776;2023-06-26T12:01:52;29.20;99.90
19868;DHT22;10096;51.112;6.776;2023-06-26T12:04:23;28.80;99.90
19868;DHT22;10096;51.112;6.776;2023-06-26T12:06:52;29.20;99.90
19868;DHT22;10096;51.112;6.776;2023-06-26T12:09:23;29.40;99.90
19868;DHT22;10096;51.112;6.776;2023-06-26T12:11:54;29.30;99.90
19868;DHT22;10096;51.112;6.776;2023-06-26T12:14:23;29.60;99.90
19868;DHT22;10096;51.112;6.776;2023-06-26T12:16:53;29.70;99.90
19868;DHT22;10096;51.112;6.776;2023-06-26T12:19:25;29.70;99.90
19868;DHT22;10096;51.112;6.776;2023-06-26T12:21:53;29.80;99.90
19868;DHT22;10096;51.112;6.776;2023-06-26T12:24:23;30.00;99.90
19868;DHT22;10096;51.112;6.776;2023-06-26T12:26:52;29.60;99.90
19868;DHT22;10096;51.112;6.776;2023-06-26T12:29:31;29.90;99.90
19868;DHT22;10096;51.112;6.776;2023-06-26T12:32:00;29.50;99.90
19868;DHT22;10096;51.112;6.776;2023-06-26T12:34:33;29.50;99.90
19868;DHT22;10096;51.112;6.776;2023-06-26T12:37:04;29.40;99.90
19868;DHT22;10096;51.112;6.776;2023-06-26T12:39:45;28.90;99.90
19868;DHT22;10096;51.112;6.776;2023-06-26T12:42:14;29.00;99.90
19868;DHT22;10096;51.112;6.776;2023-06-26T12:44:45;28.90;99.90
19868;DHT22;10096;51.112;6.776;2023-06-26T12:47:14;28.80;99.90
19868;DHT22;10096;51.112;6.776;2023-06-26T12:49:45;29.20;99.90
19868;DHT22;10096;51.112;6.776;2023-06-26T12:52:14;29.70;99.90
19868;DHT22;10096;51.112;6.776;2023-06-26T12:54:42;29.40;99.90
19868;DHT22;10096;51.112;6.776;2023-06-26T12:57:10;29.30;99.90
19868;DHT22;10096;51.112;6.776;2023-06-26T12:59:41;29.30;99.90
19868;DHT22;10096;51.112;6.776;2023-06-26T13:02:09;29.70;99.90
19868;DHT22;10096;51.112;6.776;2023-06-26T13:04:38;29.20;99.90
19868;DHT22;10096;51.112;6.776;2023-06-26T13:07:08;29.00;99.90
19868;DHT22;10096;51.112;6.776;2023-06-26T13:09:35;29.00;99.90
19868;DHT22;10096;51.112;6.776;2023-06-26T13:12:05;29.00;99.90
19868;DHT22;10096;51.112;6.776;2023-06-26T13:14:32;29.20;99.90
19868;DHT22;10096;51.112;6.776;2023-06-26T13:17:00;29.30;99.90
19868;DHT22;10096;51.112;6.776;2023-06-26T13:19:27;29.40;99.90
19868;DHT22;10096;51.112;6.776;2023-06-26T13:21:55;29.60;99.90
19868;DHT22;10096;51.112;6.776;2023-06-26T13:24:24;29.40;99.90
19868;DHT22;10096;51.112;6.776;2023-06-26T13:26:51;29.10;99.90
19868;DHT22;10096;51.112;6.776;2023-06-26T13:29:19;29.10;99.90
19868;DHT22;10096;51.112;6.776;2023-06-26T13:31:46;29.40;99.90
19868;DHT22;10096;51.112;6.776;2023-06-26T13:34:20;29.60;99.90
19868;DHT22;10096;51.112;6.776;2023-06-26T13:36:48;29.70;99.90
19868;DHT22;10096;51.112;6.776;2023-06-26T13:39:15;29.60;99.90
19868;DHT22;10096;51.112;6.776;2023-06-26T13:41:44;29.50;99.90
19868;DHT22;10096;51.112;6.776;2023-06-26T13:44:12;29.20;99.90
19868;DHT22;10096;51.112;6.776;2023-06-26T13:46:39;29.10;99.90
19868;DHT22;10096;51.112;6.776;2023-06-26T13:49:06;28.80;99.90
19868;DHT22;10096;51.112;6.776;2023-06-26T13:51:33;28.40;99.90
19868;DHT22;10096;51.112;6.776;2023-06-26T13:54:01;28.20;99.90
19868;DHT22;10096;51.112;6.776;2023-06-26T13:56:28;28.10;99.90
19868;DHT22;10096;51.112;6.776;2023-06-26T13:58:57;28.30;99.90
19868;DHT22;10096;51.112;6.776;2023-06-26T14:01:25;28.70;99.90
19868;DHT22;10096;51.112;6.776;2023-06-26T14:03:52;28.50;99.90
19868;DHT22;10096;51.112;6.776;2023-06-26T14:06:21;28.40;99.90
19868;DHT22;10096;51.112;6.776;2023-06-26T14:08:48;28.50;99.90
19868;DHT22;10096;51.112;6.776;2023-06-26T14:11:15;28.50;99.90
19868;DHT22;10096;51.112;6.776;2023-06-26T14:13:43;28.50;99.90
19868;DHT22;10096;51.112;6.776;2023-06-26T14:16:13;28.40;99.90
19868;DHT22;10096;51.112;6.776;2023-06-26T14:18:40;28.30;99.90
19868;DHT22;10096;51.112;6.776;2023-06-26T14:21:07;28.30;99.90
19868;DHT22;10096;51.112;6.776;2023-06-26T14:23:35;28.00;99.90
19868;DHT22;10096;51.112;6.776;2023-06-26T14:26:02;28.20;99.90
19868;DHT22;10096;51.112;6.776;2023-06-26T14:28:29;28.10;99.90
19868;DHT22;10096;51.112;6.776;2023-06-26T14:30:58;28.20;99.90
19868;DHT22;10096;51.112;6.776;2023-06-26T14:33:27;28.10;99.90
19868;DHT22;10096;51.112;6.776;2023-06-26T14:35:56;28.00;99.90
19868;DHT22;10096;51.112;6.776;2023-06-26T14:38:23;28.20;99.90
19868;DHT22;10096;51.112;6.776;2023-06-26T14:40:53;28.20;99.90
19868;DHT22;10096;51.112;6.776;2023-06-26T14:43:20;28.00;99.90
19868;DHT22;10096;51.112;6.776;2023-06-26T14:45:47;27.90;99.90
19868;DHT22;10096;51.112;6.776;2023-06-26T14:48:14;27.60;99.90
19868;DHT22;10096;51.112;6.776;2023-06-26T14:50:43;27.40;99.90
19868;DHT22;10096;51.112;6.776;2023-06-26T14:53:14;27.30;99.90
19868;DHT22;10096;51.112;6.776;2023-06-26T14:55:41;27.60;99.90
19868;DHT22;10096;51.112;6.776;2023-06-26T14:58:08;27.60;99.90
19868;DHT22;10096;51.112;6.776;2023-06-26T15:00:36;27.50;99.90
19868;DHT22;10096;51.112;6.776;2023-06-26T15:03:03;27.40;99.90
19868;DHT22;10096;51.112;6.776;2023-06-26T15:05:32;27.00;99.90
19868;DHT22;10096;51.112;6.776;2023-06-26T15:08:01;27.20;99.90
19868;DHT22;10096;51.112;6.776;2023-06-26T15:10:28;27.50;99.90
19868;DHT22;10096;51.112;6.776;2023-06-26T15:12:55;27.50;99.90
19868;DHT22;10096;51.112;6.776;2023-06-26T15:15:23;27.60;99.90
19868;DHT22;10096;51.112;6.776;2023-06-26T15:17:51;27.60;99.90
19868;DHT22;10096;51.112;6.776;2023-06-26T15:20:21;27.80;99.90
19868;DHT22;10096;51.112;6.776;2023-06-26T15:22:48;27.50;99.90
19868;DHT22;10096;51.112;6.776;2023-06-26T15:25:17;27.20;99.90
19868;DHT22;10096;51.112;6.776;2023-06-26T15:27:44;27.10;99.90
19868;DHT22;10096;51.112;6.776;2023-06-26T15:30:12;26.90;99.90
19868;DHT22;10096;51.112;6.776;2023-06-26T15:32:40;26.90;99.90
19868;DHT22;10096;51.112;6.776;2023-06-26T15:35:08;26.80;99.90
19868;DHT22;10096;51.112;6.776;2023-06-26T15:37:35;26.80;99.90
19868;DHT22;10096;51.112;6.776;2023-06-26T15:40:05;27.10;99.90
19868;DHT22;10096;51.112;6.776;2023-06-26T15:42:44;27.40;99.90